Epworth, Illinois
Current Conditions -  °F | °C
As of 5:55 AM on Thursday 25 Dec 2014 (Local Time) from KCUL Reporting Station
Overcast Overcast  
Wind Chill: 35°   Ceiling: 3000
Heat Index: 40°   Visibility: 10mi
Dew Point: 35°   Wind: 8mph
Humidity: 83%   Direction: 220°SW
Pressure: 30.03"   Gusts: NA
Location:  38.0491°N, 88.1124°W
Report Text: KCUL 251155Z AUTO 22007KT 10SM OVC030 05/02 A3003 RMK AO2 T00450018 10046 20042
Loading
Personal Weather Stations






























Interactive Weather Map New forecast layout! Learn more

10-Day Weather Forecast

Advertisements
Track Severe Weather on mobile